SKBOSKSM [VC141]

Details From SKBO - Bogota - El Dorado Intl
To SKSM - SIMON BOLIVAR
Flight Number VC141
Tags None
Created
Modified
Stats Distance 391 nm / 723 km
Max Altitude 0 ft / 0 m
Waypoints 8
Social Downloads 0
Likes 0
Share VATSIM

Download

Looking for another format? Having issues loading an existing format? Contact us
Advertisement - Login to hide

Notes

Viva Colombia Flight

Route

SKBO BUV EJA LOKOV ELB EDVAR STA SKSM

ID Type Via Altitude Latitude Longitude Leg Dist Tot Dist Heading (true) Name
O SKBO APT - 0 ft / 0 m 4.70160˚ -74.14700˚ - 0 nm - Bogota - El Dorado Intl
BUV VOR - 0 ft / 0 m 5.53220˚ -73.85860˚ 52 nm 52 nm 19° / 19° BUVIS VOR-DME
EJA VOR - 0 ft / 0 m 7.02860˚ -73.80560˚ 89 nm 142 nm 2° / 2° BARRANCABERMEJA VOR-DME
LOKOV FIX - 0 ft / 0 m 8.04610˚ -73.88690˚ 61 nm 204 nm 355° / 355° -
ELB VOR - 0 ft / 0 m 9.04530˚ -73.96720˚ 60 nm 264 nm 355° / 355° EL BANCO VOR-DME
EDVAR FIX - 0 ft / 0 m 10.09720˚ -74.01330˚ 63 nm 327 nm 358° / 358° -
STA VOR - 0 ft / 0 m 10.96250˚ -74.24060˚ 53 nm 381 nm 346° / 345° SANTA MARTA VOR-DME
O SKSM APT - 0 ft / 0 m 11.11970˚ -74.23060˚ 9 nm 390 nm 4° / 4° SIMON BOLIVAR

Altitude Profile

Advertisement - Login to hide

Weather


0- 5 10 15 20 25 30 35+ Temperature / ° C

Clouds and Precipitation
Forecast for 2017-12-12 18:00 UTC. Updated an hour ago

Ground ~20,000 ft ~40,000 ft Winds

SKBO

Details ICAO SKBO (BOG)
Name Bogota - El Dorado Intl
Region Colombia
Timezone America/Bogota (UTC-5.0)
Stats Elevation 8,361 ft / 2,548 m (AMSL)
Location 4.701594° -74.146946°
Runways 2
Magnetic Variation 7.266° W

METAR

SKBO 121600Z VRB03KT 9999 BKN020 SCT080 17/09 A3036

Decode

TAF

Not found

Departure Runways

ID Width Length Bearing (true) Bearing (mag) Surface Threshold Offset Overrun Length
13L 148 ft / 45 m 12,482 ft / 3,804 m 127.21° 134.48° Asphalt 0 ft / 0 m 0 ft / 0 m
13R 148 ft / 45 m 12,494 ft / 3,808 m 127.23° 134.50° Asphalt 0 ft / 0 m 200 ft / 61 m
31L 148 ft / 45 m 12,494 ft / 3,808 m 307.23° 314.50° Asphalt 0 ft / 0 m 190 ft / 58 m
31R 148 ft / 45 m 12,482 ft / 3,804 m 307.21° 314.48° Asphalt 0 ft / 0 m 0 ft / 0 m

SKSM

Details ICAO SKSM (SMR)
Name SIMON BOLIVAR
Region Colombia
Timezone Unknown (UTC+0.0)
Stats Elevation 22 ft / 7 m (AMSL)
Location 11.119649° -74.230646°
Runways 1
Magnetic Variation 8.100° W

METAR

SKSM 121600Z 28008KT 9999 FEW020 SCT200 29/24 A2989

Decode

TAF

Not found

Destination Runways

ID Width Length Bearing (true) Bearing (mag) Surface Threshold Offset Overrun Length
01 98 ft / 30 m 5,618 ft / 1,712 m 358.67° 6.77° Asphalt 0 ft / 0 m 0 ft / 0 m
19 98 ft / 30 m 5,618 ft / 1,712 m 178.67° 186.77° Asphalt 0 ft / 0 m 0 ft / 0 m

Popular Alternatives